createdAt,value
2018-05-14T00:01:53.252Z,99285.68
2018-05-14T00:04:20.844Z,99285.31
2018-05-14T00:06:48.439Z,99290.34
2018-05-14T00:09:16.075Z,99285.58
2018-05-14T00:11:43.702Z,99287.38
2018-05-14T00:14:11.309Z,99281.67
2018-05-14T00:16:38.943Z,99283.15
2018-05-14T00:19:06.568Z,99280.05
2018-05-14T00:21:34.146Z,99280.93
2018-05-14T00:24:01.980Z,99286.00
2018-05-14T00:26:29.572Z,99289.77
2018-05-14T00:28:57.158Z,99285.40
2018-05-14T00:31:24.791Z,99290.67
2018-05-14T00:33:52.380Z,99286.08
2018-05-14T00:36:19.986Z,99278.20
2018-05-14T00:38:47.660Z,99280.55
2018-05-14T00:41:15.243Z,99284.32
2018-05-14T00:43:42.835Z,99291.87
2018-05-14T00:46:10.459Z,99293.29
2018-05-14T00:48:38.051Z,99297.38
2018-05-14T00:51:05.643Z,99304.04
2018-05-14T00:53:33.392Z,99298.08
2018-05-14T00:56:00.969Z,99299.03
2018-05-14T00:58:28.553Z,99291.42
2018-05-14T01:00:56.180Z,99289.98
2018-05-14T01:03:23.759Z,99293.64
2018-05-14T01:05:51.344Z,99302.11
2018-05-14T01:08:18.958Z,99295.28
2018-05-14T01:10:46.650Z,99305.99
2018-05-14T01:13:14.272Z,99298.25
2018-05-14T01:15:41.876Z,99299.39
2018-05-14T01:18:09.468Z,99307.88
2018-05-14T01:20:37.062Z,99304.60
2018-05-14T01:23:04.764Z,99306.66
2018-05-14T01:25:32.415Z,99307.47
2018-05-14T01:28:00.095Z,99309.27
2018-05-14T01:30:27.656Z,99305.09
2018-05-14T01:32:55.231Z,99301.69
2018-05-14T01:35:22.820Z,99304.97
2018-05-14T01:37:50.505Z,99305.27
2018-05-14T01:40:18.099Z,99306.83
2018-05-14T01:42:45.678Z,99317.83
2018-05-14T01:45:13.296Z,99321.03
2018-05-14T01:47:40.888Z,99309.63
2018-05-14T01:50:08.571Z,99308.02
2018-05-14T01:52:36.169Z,99313.27
2018-05-14T01:55:03.748Z,99314.13
2018-05-14T01:57:31.390Z,99316.38
2018-05-14T01:59:59.032Z,99315.83
2018-05-14T02:02:26.618Z,99312.80
2018-05-14T02:04:54.243Z,99317.88
2018-05-14T02:07:21.832Z,99319.80
2018-05-14T02:09:49.419Z,99329.74
2018-05-14T02:12:17.034Z,99323.20
2018-05-14T02:14:44.624Z,99321.42
2018-05-14T02:17:12.217Z,99323.28
2018-05-14T02:19:39.871Z,99324.39
2018-05-14T02:22:07.454Z,99333.77
2018-05-14T02:24:35.046Z,99332.58
2018-05-14T02:27:02.713Z,99331.97
2018-05-14T02:29:30.307Z,99341.00
2018-05-14T02:31:57.887Z,99333.75
2018-05-14T02:34:25.522Z,99329.98
2018-05-14T02:36:53.175Z,99327.98
2018-05-14T02:39:20.760Z,99334.80
2018-05-14T02:41:48.662Z,99333.86
2018-05-14T02:44:16.262Z,99333.09
2018-05-14T02:46:43.865Z,99321.40
2018-05-14T02:49:11.515Z,99332.84
2018-05-14T02:51:39.099Z,99335.12
2018-05-14T02:54:06.674Z,99333.37
2018-05-14T02:56:34.294Z,99345.52
2018-05-14T02:59:01.882Z,99343.23
2018-05-14T03:01:29.475Z,99346.38
2018-05-14T03:03:57.097Z,99353.53
2018-05-14T03:06:24.682Z,99364.07
2018-05-14T03:08:52.277Z,99365.70
2018-05-14T03:11:19.909Z,99368.47
2018-05-14T03:13:47.520Z,99365.91
2018-05-14T03:16:15.127Z,99363.14
2018-05-14T03:18:42.792Z,99372.77
2018-05-14T03:21:10.381Z,99383.41
2018-05-14T03:23:37.964Z,99401.01
2018-05-14T03:26:05.584Z,99400.20
2018-05-14T03:28:33.171Z,99407.73
2018-05-14T03:31:00.769Z,99405.87
2018-05-14T03:33:28.425Z,99400.13
2018-05-14T03:35:56.029Z,99404.48
2018-05-14T03:38:23.618Z,99409.91
2018-05-14T03:40:51.236Z,99411.72
2018-05-14T03:43:18.816Z,99418.82
2018-05-14T03:45:46.415Z,99416.28
2018-05-14T03:48:14.079Z,99425.11
2018-05-14T03:50:41.668Z,99436.94
2018-05-14T03:53:09.251Z,99439.50
2018-05-14T03:55:36.879Z,99428.98
2018-05-14T03:58:04.500Z,99427.38
2018-05-14T04:00:43.910Z,99417.50
2018-05-14T04:03:23.164Z,99425.88
2018-05-14T04:06:02.416Z,99421.68
2018-05-14T04:08:30.006Z,99422.66
2018-05-14T04:10:57.596Z,99426.92
2018-05-14T04:13:25.207Z,99428.64
2018-05-14T04:15:52.808Z,99431.43
2018-05-14T04:18:20.421Z,99431.89
2018-05-14T04:20:48.049Z,99444.70
2018-05-14T04:23:15.760Z,99447.83
2018-05-14T04:25:43.343Z,99443.89
2018-05-14T04:28:11.063Z,99450.48
2018-05-14T04:30:38.732Z,99446.34
2018-05-14T04:33:06.318Z,99449.55
2018-05-14T04:35:34.067Z,99444.00
2018-05-14T04:38:01.660Z,99443.31
2018-05-14T04:40:29.247Z,99439.34
2018-05-14T04:42:56.936Z,99436.41
2018-05-14T04:45:24.704Z,99438.74
2018-05-14T04:47:52.291Z,99438.92
2018-05-14T04:50:19.906Z,99450.55
2018-05-14T04:52:47.493Z,99443.75
2018-05-14T04:55:15.224Z,99442.07
2018-05-14T04:57:43.014Z,99442.83
2018-05-14T05:00:10.637Z,99437.27
2018-05-14T05:02:38.338Z,99438.63
2018-05-14T05:05:05.959Z,99439.44
2018-05-14T05:07:33.544Z,99435.22
2018-05-14T05:10:01.327Z,99436.44
2018-05-14T05:12:28.947Z,99438.33
2018-05-14T05:14:56.868Z,99440.50
2018-05-14T05:17:24.455Z,99445.89
2018-05-14T05:19:52.176Z,99454.95
2018-05-14T05:22:19.851Z,99455.11
2018-05-14T05:24:47.516Z,99467.16
2018-05-14T05:27:15.382Z,99466.29
2018-05-14T05:29:43.045Z,99466.34
2018-05-14T05:32:10.623Z,99465.84
2018-05-14T05:34:38.232Z,99468.19
2018-05-14T05:37:05.807Z,99469.09
2018-05-14T05:39:33.479Z,99464.42
2018-05-14T05:42:01.108Z,99467.35
2018-05-14T05:44:28.680Z,99473.43
2018-05-14T05:46:56.478Z,99461.48
2018-05-14T05:49:24.324Z,99468.48
2018-05-14T05:51:52.001Z,99466.70
2018-05-14T05:54:19.591Z,99475.39
2018-05-14T05:56:47.210Z,99477.73
2018-05-14T05:59:14.961Z,99484.56
2018-05-14T06:01:42.533Z,99483.01
2018-05-14T06:04:10.305Z,99485.00
2018-05-14T06:06:37.896Z,99485.86
2018-05-14T06:09:06.460Z,99489.23
2018-05-14T06:11:34.318Z,99493.48
2018-05-14T06:14:01.897Z,99495.78
2018-05-14T06:16:29.646Z,99501.03
2018-05-14T06:18:57.252Z,99501.11
2018-05-14T06:21:24.977Z,99499.39
2018-05-14T06:23:52.570Z,99499.70
2018-05-14T06:26:20.282Z,99492.22
2018-05-14T06:28:47.859Z,99499.30
2018-05-14T06:31:15.627Z,99501.81
2018-05-14T06:33:43.226Z,99499.31
2018-05-14T06:36:10.954Z,99495.86
2018-05-14T06:38:38.609Z,99490.44
2018-05-14T06:41:06.285Z,99494.80
2018-05-14T06:43:33.840Z,99493.94
2018-05-14T06:46:01.420Z,99495.70
2018-05-14T06:48:29.255Z,99496.38
2018-05-14T06:50:56.849Z,99499.05
2018-05-14T06:53:24.571Z,99503.34
2018-05-14T06:55:52.187Z,99498.44
2018-05-14T06:58:20.025Z,99499.73
2018-05-14T07:00:47.868Z,99500.03
2018-05-14T07:03:19.140Z,99504.19
2018-05-14T07:05:46.774Z,99501.83
2018-05-14T07:08:14.440Z,99499.44
2018-05-14T07:10:42.046Z,99508.77
2018-05-14T07:13:09.625Z,99503.56
2018-05-14T07:15:37.207Z,99506.27
2018-05-14T07:18:04.886Z,99504.89
2018-05-14T07:20:32.458Z,99507.04
2018-05-14T07:23:00.036Z,99505.82
2018-05-14T07:25:27.657Z,99511.30
2018-05-14T07:27:55.328Z,99508.78
2018-05-14T07:30:22.911Z,99510.12
2018-05-14T07:32:50.520Z,99503.80
2018-05-14T07:35:18.945Z,99504.53
2018-05-14T07:37:46.604Z,99504.00
2018-05-14T07:40:14.229Z,99513.25
2018-05-14T07:42:42.143Z,99512.02
2018-05-14T07:45:09.743Z,99517.91
2018-05-14T07:47:37.482Z,99521.11
2018-05-14T07:50:05.043Z,99525.39
2018-05-14T07:52:32.926Z,99527.30
2018-05-14T07:55:00.719Z,99531.16
2018-05-14T07:57:28.311Z,99533.67
2018-05-14T07:59:55.868Z,99527.52
2018-05-14T08:02:23.468Z,99530.39
2018-05-14T08:04:51.051Z,99536.48
2018-05-14T08:07:18.744Z,99536.83
2018-05-14T08:09:46.408Z,99542.32
2018-05-14T08:12:14.081Z,99545.26
2018-05-14T08:14:41.656Z,99546.33
2018-05-14T08:17:09.409Z,99541.11
2018-05-14T08:19:36.991Z,99539.38
2018-05-14T08:22:04.576Z,99538.70
2018-05-14T08:24:32.208Z,99539.02
2018-05-14T08:26:59.775Z,99536.63
2018-05-14T08:29:27.355Z,99531.51
2018-05-14T08:31:55.165Z,99533.97
2018-05-14T08:34:22.735Z,99536.18
2018-05-14T08:36:50.489Z,99544.09
2018-05-14T08:39:18.312Z,99541.00
2018-05-14T08:41:45.823Z,99541.28
2018-05-14T08:44:13.401Z,99540.58
2018-05-14T08:46:41.147Z,99543.83
2018-05-14T08:49:08.810Z,99541.52
2018-05-14T08:51:36.391Z,99550.53
2018-05-14T08:54:04.120Z,99549.58
2018-05-14T08:56:31.790Z,99558.52
2018-05-14T08:58:59.459Z,99562.08
2018-05-14T09:01:27.122Z,99556.03
2018-05-14T09:03:54.708Z,99558.23
2018-05-14T09:06:22.444Z,99562.70
2018-05-14T09:08:50.081Z,99551.77
2018-05-14T09:11:17.754Z,99560.81
2018-05-14T09:13:45.326Z,99559.28
2018-05-14T09:16:13.093Z,99556.42
2018-05-14T09:18:40.922Z,99560.91
2018-05-14T09:21:08.500Z,99562.48
2018-05-14T09:23:36.197Z,99560.00
2018-05-14T09:26:03.780Z,99569.42
2018-05-14T09:28:31.464Z,99563.12
2018-05-14T09:30:59.155Z,99571.75
2018-05-14T09:33:26.731Z,99569.36
2018-05-14T09:35:54.590Z,99573.48
2018-05-14T09:38:22.261Z,99577.09
2018-05-14T09:40:49.911Z,99579.01
2018-05-14T09:43:17.571Z,99580.76
2018-05-14T09:45:45.188Z,99584.79
2018-05-14T09:48:12.909Z,99588.17
2018-05-14T09:50:40.674Z,99586.80
2018-05-14T09:53:08.300Z,99592.17
2018-05-14T09:55:36.082Z,99596.16
2018-05-14T09:58:03.761Z,99594.27
2018-05-14T10:00:31.392Z,99593.66
2018-05-14T10:02:59.077Z,99593.59
2018-05-14T10:05:26.738Z,99596.48
2018-05-14T10:07:54.370Z,99595.58
2018-05-14T10:10:21.953Z,99602.02
2018-05-14T10:12:49.544Z,99609.25
2018-05-14T10:15:17.393Z,99610.38
2018-05-14T10:17:45.462Z,99611.09
2018-05-14T10:20:13.047Z,99610.53
2018-05-14T10:22:40.785Z,99613.03
2018-05-14T10:25:08.371Z,99614.45
2018-05-14T10:27:36.118Z,99612.56
2018-05-14T10:30:03.774Z,99609.20
2018-05-14T10:32:31.434Z,99610.68
2018-05-14T10:34:59.008Z,99612.68
2018-05-14T10:37:26.625Z,99604.79
2018-05-14T10:39:54.200Z,99613.69
2018-05-14T10:42:21.877Z,99618.57
2018-05-14T10:44:49.486Z,99613.64
2018-05-14T10:47:17.339Z,99613.81
2018-05-14T10:49:44.951Z,99608.46
2018-05-14T10:52:12.778Z,99601.75
2018-05-14T10:54:40.361Z,99601.64
2018-05-14T10:57:08.164Z,99599.58
2018-05-14T10:59:35.773Z,99605.16
2018-05-14T11:02:03.352Z,99598.56
2018-05-14T11:04:31.036Z,99603.44
2018-05-14T11:06:58.705Z,99597.97
2018-05-14T11:09:26.290Z,99591.07
2018-05-14T11:11:53.861Z,99595.63
2018-05-14T11:14:21.680Z,99578.12
2018-05-14T11:16:49.349Z,99582.36
2018-05-14T11:19:16.927Z,99580.58
2018-05-14T11:21:44.671Z,99584.05
2018-05-14T11:24:12.256Z,99583.55
2018-05-14T11:26:39.831Z,99590.72
2018-05-14T11:29:07.471Z,99581.20
2018-05-14T11:31:35.117Z,99584.10
2018-05-14T11:34:02.795Z,99585.05
2018-05-14T11:36:30.408Z,99583.44
2018-05-14T11:38:58.106Z,99575.59
2018-05-14T11:41:25.777Z,99579.52
2018-05-14T11:43:53.431Z,99577.38
2018-05-14T11:46:21.098Z,99569.75
2018-05-14T11:48:48.660Z,99564.05
2018-05-14T11:51:16.410Z,99557.69
2018-05-14T11:53:43.995Z,99561.00
2018-05-14T11:56:11.747Z,99562.42
2018-05-14T11:58:39.350Z,99562.42
2018-05-14T12:01:07.060Z,99558.55
2018-05-14T12:03:34.646Z,99558.16
2018-05-14T12:06:02.294Z,99553.72
2018-05-14T12:08:30.081Z,99548.14
2018-05-14T12:10:57.658Z,99555.38
2018-05-14T12:13:25.269Z,99549.58
2018-05-14T12:15:53.026Z,99544.09
2018-05-14T12:18:20.697Z,99541.80
2018-05-14T12:20:48.361Z,99538.03
2018-05-14T12:23:16.025Z,99529.62
2018-05-14T12:25:43.616Z,99534.45
2018-05-14T12:28:11.353Z,99530.39
2018-05-14T12:30:38.949Z,99534.67
2018-05-14T12:33:06.587Z,99533.14
2018-05-14T12:35:34.191Z,99531.76
2018-05-14T12:38:01.808Z,99527.88
2018-05-14T12:40:29.469Z,99522.14
2018-05-14T12:42:57.081Z,99523.60
2018-05-14T12:45:24.785Z,99530.85
2018-05-14T12:47:52.458Z,99529.53
2018-05-14T12:50:20.066Z,99516.91
2018-05-14T12:52:47.634Z,99518.98
2018-05-14T12:55:15.206Z,99517.72
2018-05-14T12:57:42.824Z,99519.73
2018-05-14T13:00:10.406Z,99523.47
2018-05-14T13:02:37.979Z,99517.86
2018-05-14T13:05:05.678Z,99511.83
2018-05-14T13:07:33.348Z,99517.89
2018-05-14T13:10:01.008Z,99518.72
2018-05-14T13:12:28.635Z,99518.33
2018-05-14T13:14:56.224Z,99512.14
2018-05-14T13:17:23.989Z,99511.71
2018-05-14T13:19:51.661Z,99512.02
2018-05-14T13:22:19.333Z,99510.27
2018-05-14T13:24:46.923Z,99514.24
2018-05-14T13:27:14.648Z,99521.28
2018-05-14T13:29:42.296Z,99515.95
2018-05-14T13:32:09.980Z,99508.38
2018-05-14T13:34:37.624Z,99503.88
2018-05-14T13:37:05.275Z,99503.77
2018-05-14T13:39:32.941Z,99500.35
2018-05-14T13:42:00.561Z,99498.42
2018-05-14T13:44:28.511Z,99501.34
2018-05-14T13:46:56.104Z,99504.95
2018-05-14T13:49:23.716Z,99505.55
2018-05-14T13:51:51.661Z,99502.85
2018-05-14T13:54:19.247Z,99501.09
2018-05-14T13:56:46.874Z,99506.64
2018-05-14T13:59:14.460Z,99495.73
2018-05-14T14:01:42.039Z,99501.67
2018-05-14T14:04:09.661Z,99494.83
2018-05-14T14:06:37.249Z,99497.00
2018-05-14T14:09:04.889Z,99491.98
2018-05-14T14:11:32.505Z,99487.14
2018-05-14T14:14:00.148Z,99487.01
2018-05-14T14:16:27.723Z,99489.88
2018-05-14T14:18:55.335Z,99489.05
2018-05-14T14:21:22.912Z,99487.36
2018-05-14T14:23:50.704Z,99488.36
2018-05-14T14:26:18.136Z,99484.03
2018-05-14T14:28:45.694Z,99483.78
2018-05-14T14:31:13.288Z,99485.66
2018-05-14T14:33:40.894Z,99492.35
2018-05-14T14:36:08.524Z,99495.09
2018-05-14T14:38:36.104Z,99495.50
2018-05-14T14:41:03.727Z,99488.16
2018-05-14T14:43:31.324Z,99492.45
2018-05-14T14:45:58.895Z,99496.65
2018-05-14T14:48:26.509Z,99494.55
2018-05-14T14:50:54.120Z,99489.72
2018-05-14T14:53:21.839Z,99489.64
2018-05-14T14:55:49.620Z,99490.77
2018-05-14T14:58:17.271Z,99490.83
2018-05-14T15:00:44.829Z,99488.91
2018-05-14T15:03:12.393Z,99490.23
2018-05-14T15:05:40.011Z,99491.45
2018-05-14T15:08:07.593Z,99485.41
2018-05-14T15:10:35.254Z,99493.94
2018-05-14T15:13:02.873Z,99495.19
2018-05-14T15:15:30.537Z,99502.22
2018-05-14T15:17:58.136Z,99501.53
2018-05-14T15:20:25.778Z,99501.83
2018-05-14T15:22:53.346Z,99497.01
2018-05-14T15:25:20.930Z,99496.68
2018-05-14T15:27:48.560Z,99492.13
2018-05-14T15:30:16.161Z,99493.22
2018-05-14T15:32:43.739Z,99491.81
2018-05-14T15:35:11.351Z,99494.88
2018-05-14T15:37:38.923Z,99493.46
2018-05-14T15:40:06.500Z,99493.62
2018-05-14T15:42:34.112Z,99499.10
2018-05-14T15:45:01.693Z,99491.25
2018-05-14T15:47:29.258Z,99485.89
2018-05-14T15:49:56.939Z,99487.70
2018-05-14T15:52:24.484Z,99485.44
2018-05-14T15:54:52.062Z,99488.45
2018-05-14T15:57:19.726Z,99485.52
2018-05-14T15:59:47.308Z,99491.19
2018-05-14T16:02:14.898Z,99485.59
2018-05-14T16:04:42.532Z,99492.79
2018-05-14T16:07:10.159Z,99485.38
2018-05-14T16:09:37.734Z,99488.39
2018-05-14T16:12:05.340Z,99490.18
2018-05-14T16:14:32.952Z,99483.81
2018-05-14T16:17:00.594Z,99487.05
2018-05-14T16:19:28.213Z,99478.88
2018-05-14T16:21:55.799Z,99479.86
2018-05-14T16:24:23.429Z,99486.12
2018-05-14T16:26:51.225Z,99488.34
2018-05-14T16:29:18.804Z,99495.14
2018-05-14T16:31:46.378Z,99485.17
2018-05-14T16:34:14.167Z,99487.91
2018-05-14T16:36:41.722Z,99481.73
2018-05-14T16:39:09.299Z,99490.14
2018-05-14T16:41:36.909Z,99485.33
2018-05-14T16:44:04.498Z,99493.77
2018-05-14T16:46:32.080Z,99495.75
2018-05-14T16:48:59.727Z,99501.47
2018-05-14T16:51:27.304Z,99500.81
2018-05-14T16:53:54.882Z,99510.52
2018-05-14T16:56:22.675Z,99505.87
2018-05-14T16:58:50.408Z,99502.05
2018-05-14T17:01:17.980Z,99508.23
2018-05-14T17:03:45.731Z,99511.02
2018-05-14T17:06:13.269Z,99515.59
2018-05-14T17:08:40.845Z,99508.20
2018-05-14T17:11:08.646Z,99505.15
2018-05-14T17:13:36.211Z,99500.94
2018-05-14T17:16:03.775Z,99500.29
2018-05-14T17:18:31.365Z,99507.57
2018-05-14T17:20:58.935Z,99506.66
2018-05-14T17:23:26.545Z,99505.04
2018-05-14T17:25:54.211Z,99505.91
2018-05-14T17:28:21.790Z,99509.56
2018-05-14T17:30:49.561Z,99513.81
2018-05-14T17:33:17.396Z,99519.27
2018-05-14T17:35:45.131Z,99520.09
2018-05-14T17:38:12.928Z,99520.66
2018-05-14T17:40:40.631Z,99530.98
2018-05-14T17:43:08.696Z,99533.03
2018-05-14T17:45:36.492Z,99524.40
2018-05-14T17:48:04.167Z,99529.59
2018-05-14T17:50:31.759Z,99527.02
2018-05-14T17:52:59.420Z,99524.36
2018-05-14T17:55:27.387Z,99521.03
2018-05-14T17:57:55.041Z,99521.11
2018-05-14T18:00:22.712Z,99527.56
2018-05-14T18:02:50.354Z,99531.82
2018-05-14T18:05:18.060Z,99528.04
2018-05-14T18:07:45.636Z,99527.09
2018-05-14T18:10:13.266Z,99537.31
2018-05-14T18:12:40.858Z,99541.56
2018-05-14T18:15:08.438Z,99549.33
2018-05-14T18:17:36.564Z,99551.30
2018-05-14T18:20:09.541Z,99564.71
2018-05-14T18:22:40.277Z,99563.69
2018-05-14T18:25:13.666Z,99567.98
2018-05-14T18:27:46.854Z,99562.53
2018-05-14T18:30:14.445Z,99564.09
2018-05-14T18:35:54.555Z,99563.20
2018-05-14T18:38:22.367Z,99566.62
2018-05-14T18:40:50.008Z,99576.81
2018-05-14T18:43:17.587Z,99570.97
2018-05-14T18:45:45.403Z,99578.41
2018-05-14T18:48:12.987Z,99575.88
2018-05-14T18:50:40.654Z,99579.48
2018-05-14T18:53:08.261Z,99579.40
2018-05-14T18:55:35.980Z,99580.27
2018-05-14T18:58:03.648Z,99580.30
2018-05-14T19:00:31.319Z,99582.05
2018-05-14T19:02:58.899Z,99588.13
2018-05-14T19:05:26.632Z,99582.66
2018-05-14T19:07:54.313Z,99581.76
2018-05-14T19:10:27.500Z,99587.60
2018-05-14T19:12:55.162Z,99595.55
2018-05-14T19:15:28.210Z,99592.39
2018-05-14T19:18:00.713Z,99600.21
2018-05-14T19:20:28.300Z,99602.81
2018-05-14T19:23:01.580Z,99603.16
2018-05-14T19:25:29.188Z,99608.10
2018-05-14T19:28:02.437Z,99608.58
2018-05-14T19:30:30.101Z,99612.05
2018-05-14T19:32:57.703Z,99614.18
2018-05-14T19:35:31.332Z,99623.09
2018-05-14T19:37:59.231Z,99626.44
2018-05-14T19:40:32.572Z,99625.84
2018-05-14T19:43:00.190Z,99628.68
2018-05-14T19:45:27.942Z,99624.78
2018-05-14T19:47:55.545Z,99628.09
2018-05-14T19:50:23.205Z,99620.07
2018-05-14T19:52:50.743Z,99620.06
2018-05-14T19:55:18.664Z,99628.09
2018-05-14T19:57:46.261Z,99621.23
2018-05-14T20:00:13.908Z,99613.28
2018-05-14T20:02:41.505Z,99605.37
2018-05-14T20:05:09.072Z,99619.91
2018-05-14T20:07:36.707Z,99615.36
2018-05-14T20:10:04.332Z,99619.03
2018-05-14T20:12:32.119Z,99618.99
2018-05-14T20:14:59.982Z,99611.03
2018-05-14T20:17:27.648Z,99606.75
2018-05-14T20:19:55.267Z,99602.53
2018-05-14T20:22:23.110Z,99605.56
2018-05-14T20:24:50.855Z,99604.73
2018-05-14T20:27:18.596Z,99599.53
2018-05-14T20:29:46.583Z,99593.61
2018-05-14T20:32:14.251Z,99593.63
2018-05-14T20:34:41.841Z,99584.02
2018-05-14T20:37:09.603Z,99582.69
2018-05-14T20:39:37.232Z,99578.88
2018-05-14T20:42:04.900Z,99567.20
2018-05-14T20:44:32.487Z,99574.69
2018-05-14T20:47:00.108Z,99567.80
2018-05-14T20:49:27.687Z,99553.28
2018-05-14T20:51:55.529Z,99548.55
2018-05-14T20:54:23.162Z,99544.95
2018-05-14T20:56:50.852Z,99542.66
2018-05-14T20:59:18.741Z,99544.31
2018-05-14T21:01:46.356Z,99555.03
2018-05-14T21:04:14.052Z,99565.89
2018-05-14T21:06:41.707Z,99567.11
2018-05-14T21:09:09.334Z,99571.99
2018-05-14T21:11:36.947Z,99580.44
2018-05-14T21:14:04.584Z,99571.88
2018-05-14T21:16:32.377Z,99571.09
2018-05-14T21:18:59.971Z,99574.77
2018-05-14T21:21:27.554Z,99572.88
2018-05-14T21:23:55.192Z,99572.22
2018-05-14T21:26:22.775Z,99572.73
2018-05-14T21:28:50.484Z,99580.34
2018-05-14T21:31:18.203Z,99579.41
2018-05-14T21:33:45.786Z,99581.86
2018-05-14T21:36:13.362Z,99593.10
2018-05-14T21:38:40.980Z,99595.66
2018-05-14T21:41:08.562Z,99606.13
2018-05-14T21:43:36.144Z,99600.71
2018-05-14T21:46:03.761Z,99591.48
2018-05-14T21:48:31.344Z,99594.31
2018-05-14T21:50:58.911Z,99586.57
2018-05-14T21:53:26.545Z,99594.04
2018-05-14T21:55:54.208Z,99597.69
2018-05-14T21:58:21.788Z,99594.98
2018-05-14T22:00:49.400Z,99602.30
2018-05-14T22:03:16.985Z,99610.28
2018-05-14T22:05:50.740Z,99625.30
2018-05-14T22:08:18.414Z,99641.32
2018-05-14T22:10:46.014Z,99661.80
2018-05-14T22:13:13.642Z,99681.98
2018-05-14T22:15:41.367Z,99693.91
2018-05-14T22:18:08.973Z,99687.27
2018-05-14T22:20:36.620Z,99676.94
2018-05-14T22:23:04.359Z,99674.80
2018-05-14T22:25:31.959Z,99694.20
2018-05-14T22:27:59.612Z,99696.65
2018-05-14T22:30:27.191Z,99698.11
2018-05-14T22:32:54.778Z,99687.72
2018-05-14T22:35:22.383Z,99691.28
2018-05-14T22:37:49.973Z,99699.44
2018-05-14T22:40:17.552Z,99702.28
2018-05-14T22:42:45.180Z,99710.17
2018-05-14T22:45:12.780Z,99698.64
2018-05-14T22:47:40.409Z,99695.92
2018-05-14T22:50:08.073Z,99711.95
2018-05-14T22:52:35.666Z,99714.25
2018-05-14T22:55:03.254Z,99716.45
2018-05-14T22:57:30.888Z,99717.11
2018-05-14T22:59:58.560Z,99715.22
2018-05-14T23:02:26.563Z,99708.16
2018-05-14T23:04:54.177Z,99708.98
2018-05-14T23:07:21.849Z,99702.20
2018-05-14T23:09:49.521Z,99709.27
2018-05-14T23:12:17.371Z,99706.00
2018-05-14T23:14:45.214Z,99696.38
2018-05-14T23:17:13.163Z,99699.77
2018-05-14T23:19:41.234Z,99697.19
2018-05-14T23:22:09.307Z,99700.06
2018-05-14T23:24:37.175Z,99703.34
2018-05-14T23:27:05.245Z,99710.27
2018-05-14T23:29:33.318Z,99710.13
2018-05-14T23:32:01.209Z,99715.28
2018-05-14T23:34:29.284Z,99714.87
2018-05-14T23:36:57.245Z,99718.69
2018-05-14T23:39:24.992Z,99715.84
2018-05-14T23:41:53.063Z,99720.81
2018-05-14T23:44:21.135Z,99712.80
2018-05-14T23:46:49.181Z,99708.45
2018-05-14T23:49:17.271Z,99709.13
2018-05-14T23:51:45.146Z,99704.50
2018-05-14T23:54:13.216Z,99696.22
2018-05-14T23:56:41.275Z,99686.42
2018-05-14T23:59:09.155Z,99682.09
